sensor_id;sensor_type;location;lat;lon;timestamp;pressure;altitude;pressure_sealevel;temperature;humidity
11011;BME280;5558;42.702;23.178;2023-01-28T00:00:13;93014.34;;;1.50;100.00
11011;BME280;5558;42.702;23.178;2023-01-28T00:02:41;93000.19;;;1.69;100.00
11011;BME280;5558;42.702;23.178;2023-01-28T00:05:07;92988.72;;;1.58;100.00
11011;BME280;5558;42.702;23.178;2023-01-28T00:07:34;93003.03;;;1.67;100.00
11011;BME280;5558;42.702;23.178;2023-01-28T00:10:00;93005.94;;;1.36;100.00
11011;BME280;5558;42.702;23.178;2023-01-28T00:12:27;93013.19;;;1.34;100.00
11011;BME280;5558;42.702;23.178;2023-01-28T00:14:54;93007.00;;;1.05;100.00
11011;BME280;5558;42.702;23.178;2023-01-28T00:17:21;93018.94;;;1.13;100.00
11011;BME280;5558;42.702;23.178;2023-01-28T00:19:48;93019.28;;;1.16;100.00
11011;BME280;5558;42.702;23.178;2023-01-28T00:22:15;93027.03;;;0.46;100.00
11011;BME280;5558;42.702;23.178;2023-01-28T00:24:41;93021.94;;;0.69;100.00
11011;BME280;5558;42.702;23.178;2023-01-28T00:27:08;93017.53;;;0.99;100.00
11011;BME280;5558;42.702;23.178;2023-01-28T00:29:35;93021.53;;;0.83;100.00
11011;BME280;5558;42.702;23.178;2023-01-28T00:32:01;93027.81;;;0.64;100.00
11011;BME280;5558;42.702;23.178;2023-01-28T00:34:28;93026.56;;;0.67;100.00
11011;BME280;5558;42.702;23.178;2023-01-28T00:36:56;93034.81;;;0.64;100.00
11011;BME280;5558;42.702;23.178;2023-01-28T00:39:22;93032.66;;;0.61;100.00
11011;BME280;5558;42.702;23.178;2023-01-28T00:41:49;93040.56;;;0.36;100.00
11011;BME280;5558;42.702;23.178;2023-01-28T00:44:16;93037.75;;;0.20;100.00
11011;BME280;5558;42.702;23.178;2023-01-28T00:46:43;93044.63;;;0.32;100.00
11011;BME280;5558;42.702;23.178;2023-01-28T00:49:09;93043.53;;;0.22;100.00
11011;BME280;5558;42.702;23.178;2023-01-28T00:51:36;93038.44;;;0.09;100.00
11011;BME280;5558;42.702;23.178;2023-01-28T00:54:04;93049.44;;;-0.08;100.00
11011;BME280;5558;42.702;23.178;2023-01-28T00:56:31;93047.22;;;0.14;100.00
11011;BME280;5558;42.702;23.178;2023-01-28T00:58:58;93039.75;;;0.18;100.00
11011;BME280;5558;42.702;23.178;2023-01-28T01:01:25;93049.63;;;0.34;100.00
11011;BME280;5558;42.702;23.178;2023-01-28T01:03:52;93038.59;;;0.14;100.00
11011;BME280;5558;42.702;23.178;2023-01-28T01:06:22;93042.66;;;0.10;100.00
11011;BME280;5558;42.702;23.178;2023-01-28T01:08:48;93042.38;;;0.54;100.00
11011;BME280;5558;42.702;23.178;2023-01-28T01:11:16;93045.97;;;0.53;100.00
11011;BME280;5558;42.702;23.178;2023-01-28T01:13:43;93045.53;;;0.56;100.00
11011;BME280;5558;42.702;23.178;2023-01-28T01:16:10;93042.41;;;0.95;100.00
11011;BME280;5558;42.702;23.178;2023-01-28T01:18:37;93041.84;;;1.22;100.00
11011;BME280;5558;42.702;23.178;2023-01-28T01:21:06;93050.19;;;0.83;100.00
11011;BME280;5558;42.702;23.178;2023-01-28T01:23:33;93048.25;;;0.79;100.00
11011;BME280;5558;42.702;23.178;2023-01-28T01:26:00;93045.06;;;0.77;100.00
11011;BME280;5558;42.702;23.178;2023-01-28T01:28:28;93045.75;;;0.72;100.00
11011;BME280;5558;42.702;23.178;2023-01-28T01:30:58;93052.34;;;0.86;100.00
11011;BME280;5558;42.702;23.178;2023-01-28T01:33:24;93052.91;;;0.88;100.00
11011;BME280;5558;42.702;23.178;2023-01-28T01:35:52;93054.97;;;1.27;100.00
11011;BME280;5558;42.702;23.178;2023-01-28T01:38:18;93056.53;;;1.58;100.00
11011;BME280;5558;42.702;23.178;2023-01-28T01:40:45;93054.03;;;1.86;100.00
11011;BME280;5558;42.702;23.178;2023-01-28T01:43:13;93050.56;;;1.92;100.00
11011;BME280;5558;42.702;23.178;2023-01-28T01:45:42;93052.94;;;1.82;100.00
11011;BME280;5558;42.702;23.178;2023-01-28T01:48:12;93057.03;;;2.13;100.00
11011;BME280;5558;42.702;23.178;2023-01-28T01:50:42;93062.09;;;1.96;100.00
11011;BME280;5558;42.702;23.178;2023-01-28T01:53:12;93053.81;;;1.76;100.00
11011;BME280;5558;42.702;23.178;2023-01-28T01:55:40;93059.16;;;2.16;100.00
11011;BME280;5558;42.702;23.178;2023-01-28T01:58:09;93055.50;;;2.28;100.00
11011;BME280;5558;42.702;23.178;2023-01-28T02:00:36;93063.47;;;2.10;100.00
11011;BME280;5558;42.702;23.178;2023-01-28T02:03:05;93060.50;;;2.41;100.00
11011;BME280;5558;42.702;23.178;2023-01-28T02:05:31;93072.94;;;2.63;100.00
11011;BME280;5558;42.702;23.178;2023-01-28T02:07:58;93066.69;;;2.75;100.00
11011;BME280;5558;42.702;23.178;2023-01-28T02:10:45;93066.91;;;2.74;100.00
11011;BME280;5558;42.702;23.178;2023-01-28T02:13:12;93064.97;;;2.69;100.00
11011;BME280;5558;42.702;23.178;2023-01-28T02:15:39;93063.69;;;2.83;100.00
11011;BME280;5558;42.702;23.178;2023-01-28T02:18:07;93074.66;;;2.45;100.00
11011;BME280;5558;42.702;23.178;2023-01-28T02:20:36;93070.16;;;2.41;100.00
11011;BME280;5558;42.702;23.178;2023-01-28T02:23:15;93081.28;;;2.36;100.00
11011;BME280;5558;42.702;23.178;2023-01-28T02:28:40;93075.50;;;2.34;100.00
11011;BME280;5558;42.702;23.178;2023-01-28T02:31:13;93073.78;;;2.17;100.00
11011;BME280;5558;42.702;23.178;2023-01-28T02:33:42;93073.09;;;2.44;100.00
11011;BME280;5558;42.702;23.178;2023-01-28T02:36:12;93079.34;;;2.55;100.00
11011;BME280;5558;42.702;23.178;2023-01-28T02:38:44;93079.34;;;2.55;100.00
11011;BME280;5558;42.702;23.178;2023-01-28T02:41:12;93070.09;;;2.76;100.00
11011;BME280;5558;42.702;23.178;2023-01-28T02:43:43;93080.19;;;2.84;100.00
11011;BME280;5558;42.702;23.178;2023-01-28T02:46:11;93074.94;;;2.84;100.00
11011;BME280;5558;42.702;23.178;2023-01-28T02:48:56;93073.19;;;2.61;99.71
11011;BME280;5558;42.702;23.178;2023-01-28T02:51:24;93074.53;;;2.52;100.00
11011;BME280;5558;42.702;23.178;2023-01-28T02:53:55;93064.47;;;2.32;100.00
11011;BME280;5558;42.702;23.178;2023-01-28T02:56:25;93078.91;;;2.35;100.00
11011;BME280;5558;42.702;23.178;2023-01-28T02:58:57;93077.19;;;2.17;100.00
11011;BME280;5558;42.702;23.178;2023-01-28T03:01:46;93072.13;;;1.35;100.00
11011;BME280;5558;42.702;23.178;2023-01-28T03:04:15;93074.44;;;1.55;100.00
11011;BME280;5558;42.702;23.178;2023-01-28T03:06:46;93077.88;;;1.78;100.00
11011;BME280;5558;42.702;23.178;2023-01-28T03:09:15;93077.38;;;1.58;100.00
11011;BME280;5558;42.702;23.178;2023-01-28T03:11:49;93078.88;;;1.24;100.00
11011;BME280;5558;42.702;23.178;2023-01-28T03:14:37;93080.66;;;0.83;100.00
11011;BME280;5558;42.702;23.178;2023-01-28T03:17:23;93080.97;;;0.57;100.00
11011;BME280;5558;42.702;23.178;2023-01-28T03:20:08;93089.06;;;0.67;100.00
11011;BME280;5558;42.702;23.178;2023-01-28T03:22:53;93089.41;;;0.70;100.00
11011;BME280;5558;42.702;23.178;2023-01-28T03:25:39;93089.16;;;1.08;100.00
11011;BME280;5558;42.702;23.178;2023-01-28T03:28:25;93089.09;;;0.78;100.00
11011;BME280;5558;42.702;23.178;2023-01-28T03:31:14;93085.78;;;0.89;100.00
11011;BME280;5558;42.702;23.178;2023-01-28T03:33:59;93087.09;;;1.10;100.00
11011;BME280;5558;42.702;23.178;2023-01-28T03:36:44;93084.56;;;1.03;100.00
11011;BME280;5558;42.702;23.178;2023-01-28T03:39:18;93091.16;;;1.06;100.00
11011;BME280;5558;42.702;23.178;2023-01-28T03:41:54;93088.56;;;1.06;100.00
11011;BME280;5558;42.702;23.178;2023-01-28T03:44:21;93095.25;;;1.13;100.00
11011;BME280;5558;42.702;23.178;2023-01-28T03:47:07;93059.06;;;0.94;100.00
11011;BME280;5558;42.702;23.178;2023-01-28T03:49:35;93094.41;;;1.19;100.00
11011;BME280;5558;42.702;23.178;2023-01-28T03:52:01;93102.28;;;0.65;100.00
11011;BME280;5558;42.702;23.178;2023-01-28T03:54:28;93102.84;;;0.85;100.00
11011;BME280;5558;42.702;23.178;2023-01-28T03:56:54;93106.25;;;0.68;100.00
11011;BME280;5558;42.702;23.178;2023-01-28T03:59:21;93106.63;;;0.89;100.00
11011;BME280;5558;42.702;23.178;2023-01-28T04:01:47;93111.41;;;0.74;100.00
11011;BME280;5558;42.702;23.178;2023-01-28T04:04:16;93102.03;;;1.03;100.00
11011;BME280;5558;42.702;23.178;2023-01-28T04:06:47;93106.78;;;0.58;100.00
11011;BME280;5558;42.702;23.178;2023-01-28T04:09:14;93074.75;;;0.76;100.00
11011;BME280;5558;42.702;23.178;2023-01-28T04:11:40;93114.47;;;1.01;100.00
11011;BME280;5558;42.702;23.178;2023-01-28T04:14:07;93109.94;;;1.26;100.00
11011;BME280;5558;42.702;23.178;2023-01-28T04:16:34;93113.88;;;1.47;100.00
11011;BME280;5558;42.702;23.178;2023-01-28T04:19:01;93117.81;;;1.49;100.00
11011;BME280;5558;42.702;23.178;2023-01-28T04:21:29;93117.94;;;1.54;100.00
11011;BME280;5558;42.702;23.178;2023-01-28T04:23:55;93123.09;;;1.61;100.00
11011;BME280;5558;42.702;23.178;2023-01-28T04:26:22;93131.69;;;1.20;100.00
11011;BME280;5558;42.702;23.178;2023-01-28T04:28:49;93124.41;;;1.22;100.00
11011;BME280;5558;42.702;23.178;2023-01-28T04:31:16;93128.66;;;1.35;100.00
11011;BME280;5558;42.702;23.178;2023-01-28T04:33:42;93128.38;;;1.54;100.00
11011;BME280;5558;42.702;23.178;2023-01-28T04:36:09;93142.00;;;1.56;100.00
11011;BME280;5558;42.702;23.178;2023-01-28T04:38:37;93134.47;;;1.18;100.00
11011;BME280;5558;42.702;23.178;2023-01-28T04:41:04;93140.75;;;0.81;100.00
11011;BME280;5558;42.702;23.178;2023-01-28T04:43:30;93146.09;;;0.86;100.00
11011;BME280;5558;42.702;23.178;2023-01-28T04:45:57;93137.22;;;0.58;100.00
11011;BME280;5558;42.702;23.178;2023-01-28T04:48:24;93147.75;;;0.99;100.00
11011;BME280;5558;42.702;23.178;2023-01-28T04:50:50;93143.84;;;1.08;100.00
11011;BME280;5558;42.702;23.178;2023-01-28T04:53:17;93149.09;;;0.54;100.00
11011;BME280;5558;42.702;23.178;2023-01-28T04:55:45;93153.25;;;0.73;100.00
11011;BME280;5558;42.702;23.178;2023-01-28T04:58:12;93152.78;;;0.64;100.00
11011;BME280;5558;42.702;23.178;2023-01-28T05:00:38;93148.72;;;1.04;100.00
11011;BME280;5558;42.702;23.178;2023-01-28T05:03:05;93157.81;;;0.41;100.00
11011;BME280;5558;42.702;23.178;2023-01-28T05:05:32;93154.44;;;0.59;100.00
11011;BME280;5558;42.702;23.178;2023-01-28T05:07:58;93164.03;;;0.40;100.00
11011;BME280;5558;42.702;23.178;2023-01-28T05:10:26;93162.72;;;0.31;100.00
11011;BME280;5558;42.702;23.178;2023-01-28T05:12:54;93170.84;;;0.17;100.00
11011;BME280;5558;42.702;23.178;2023-01-28T05:15:21;93163.81;;;0.60;100.00
11011;BME280;5558;42.702;23.178;2023-01-28T05:17:48;93166.72;;;0.70;100.00
11011;BME280;5558;42.702;23.178;2023-01-28T05:20:15;93168.91;;;0.91;100.00
11011;BME280;5558;42.702;23.178;2023-01-28T05:22:42;93180.53;;;0.88;100.00
11011;BME280;5558;42.702;23.178;2023-01-28T05:25:09;93179.13;;;0.74;100.00
11011;BME280;5558;42.702;23.178;2023-01-28T05:27:36;93179.06;;;0.38;100.00
11011;BME280;5558;42.702;23.178;2023-01-28T05:30:05;93182.41;;;0.45;100.00
11011;BME280;5558;42.702;23.178;2023-01-28T05:32:32;93174.00;;;0.43;100.00
11011;BME280;5558;42.702;23.178;2023-01-28T05:34:59;93179.53;;;0.71;100.00
11011;BME280;5558;42.702;23.178;2023-01-28T05:37:25;93186.47;;;1.13;100.00
11011;BME280;5558;42.702;23.178;2023-01-28T05:39:52;93182.00;;;1.32;100.00
11011;BME280;5558;42.702;23.178;2023-01-28T05:42:19;93189.88;;;1.62;100.00
11011;BME280;5558;42.702;23.178;2023-01-28T05:44:46;93193.94;;;1.69;100.00
11011;BME280;5558;42.702;23.178;2023-01-28T05:47:15;93191.81;;;1.78;100.00
11011;BME280;5558;42.702;23.178;2023-01-28T05:49:41;93202.19;;;1.55;100.00
11011;BME280;5558;42.702;23.178;2023-01-28T05:52:08;93199.13;;;1.58;100.00
11011;BME280;5558;42.702;23.178;2023-01-28T05:54:35;93201.91;;;1.15;100.00
11011;BME280;5558;42.702;23.178;2023-01-28T05:57:01;93199.84;;;1.17;100.00
11011;BME280;5558;42.702;23.178;2023-01-28T05:59:28;93189.28;;;1.12;100.00
11011;BME280;5558;42.702;23.178;2023-01-28T06:01:55;93194.00;;;1.21;100.00
11011;BME280;5558;42.702;23.178;2023-01-28T06:04:23;93199.78;;;1.05;100.00
11011;BME280;5558;42.702;23.178;2023-01-28T06:06:50;93206.53;;;1.13;100.00
11011;BME280;5558;42.702;23.178;2023-01-28T06:09:17;93213.19;;;0.91;100.00
11011;BME280;5558;42.702;23.178;2023-01-28T06:11:44;93212.16;;;0.92;100.00
11011;BME280;5558;42.702;23.178;2023-01-28T06:14:11;93208.31;;;0.76;100.00
11011;BME280;5558;42.702;23.178;2023-01-28T06:16:37;93209.56;;;0.31;100.00
11011;BME280;5558;42.702;23.178;2023-01-28T06:19:04;93221.28;;;0.40;100.00
11011;BME280;5558;42.702;23.178;2023-01-28T06:21:32;93225.34;;;0.54;100.00
11011;BME280;5558;42.702;23.178;2023-01-28T06:23:59;93228.75;;;0.79;100.00
11011;BME280;5558;42.702;23.178;2023-01-28T06:26:26;93246.97;;;0.55;100.00
11011;BME280;5558;42.702;23.178;2023-01-28T06:28:52;93235.78;;;0.30;100.00
11011;BME280;5558;42.702;23.178;2023-01-28T06:31:19;93240.56;;;0.57;100.00
11011;BME280;5558;42.702;23.178;2023-01-28T06:33:46;93241.50;;;0.14;100.00
11011;BME280;5558;42.702;23.178;2023-01-28T06:36:12;93238.56;;;0.10;100.00
11011;BME280;5558;42.702;23.178;2023-01-28T06:38:40;93243.28;;;0.20;100.00
11011;BME280;5558;42.702;23.178;2023-01-28T06:41:07;93247.16;;;0.35;100.00
11011;BME280;5558;42.702;23.178;2023-01-28T06:43:34;93249.06;;;0.46;100.00
11011;BME280;5558;42.702;23.178;2023-01-28T06:46:00;93255.19;;;0.34;100.00
11011;BME280;5558;42.702;23.178;2023-01-28T06:48:27;93263.28;;;0.19;100.00
11011;BME280;5558;42.702;23.178;2023-01-28T06:50:54;93264.50;;;0.17;100.00
11011;BME280;5558;42.702;23.178;2023-01-28T06:53:21;93263.81;;;0.03;100.00
11011;BME280;5558;42.702;23.178;2023-01-28T06:55:49;93269.88;;;0.22;100.00
11011;BME280;5558;42.702;23.178;2023-01-28T06:58:15;93271.41;;;0.05;100.00
11011;BME280;5558;42.702;23.178;2023-01-28T07:00:42;93276.00;;;0.03;100.00
11011;BME280;5558;42.702;23.178;2023-01-28T07:03:09;93276.88;;;0.21;100.00
11011;BME280;5558;42.702;23.178;2023-01-28T07:05:35;93277.63;;;0.28;100.00
11011;BME280;5558;42.702;23.178;2023-01-28T07:08:03;93273.56;;;0.08;100.00
11011;BME280;5558;42.702;23.178;2023-01-28T07:10:30;93283.22;;;-0.31;100.00
11011;BME280;5558;42.702;23.178;2023-01-28T07:12:58;93278.31;;;-0.14;100.00
11011;BME280;5558;42.702;23.178;2023-01-28T07:15:24;93290.03;;;-0.05;100.00
11011;BME280;5558;42.702;23.178;2023-01-28T07:17:51;93301.09;;;0.22;100.00
11011;BME280;5558;42.702;23.178;2023-01-28T07:20:18;93295.75;;;0.41;100.00
11011;BME280;5558;42.702;23.178;2023-01-28T07:22:45;93304.25;;;0.55;100.00
11011;BME280;5558;42.702;23.178;2023-01-28T07:25:12;93293.69;;;0.50;100.00
11011;BME280;5558;42.702;23.178;2023-01-28T07:27:45;93302.88;;;0.77;100.00
11011;BME280;5558;42.702;23.178;2023-01-28T07:30:13;93311.25;;;0.54;100.00
11011;BME280;5558;42.702;23.178;2023-01-28T07:32:40;93307.91;;;0.72;100.00
11011;BME280;5558;42.702;23.178;2023-01-28T07:35:07;93314.78;;;0.42;100.00
11011;BME280;5558;42.702;23.178;2023-01-28T07:37:34;93310.25;;;0.80;100.00
11011;BME280;5558;42.702;23.178;2023-01-28T07:40:01;93317.97;;;0.93;100.00
11011;BME280;5558;42.702;23.178;2023-01-28T07:42:28;93287.16;;;1.08;100.00
11011;BME280;5558;42.702;23.178;2023-01-28T07:44:55;93324.38;;;1.33;100.00
11011;BME280;5558;42.702;23.178;2023-01-28T07:47:24;93321.19;;;1.49;100.00
11011;BME280;5558;42.702;23.178;2023-01-28T07:49:50;93326.91;;;1.58;100.00
11011;BME280;5558;42.702;23.178;2023-01-28T07:52:17;93329.59;;;1.33;100.00
11011;BME280;5558;42.702;23.178;2023-01-28T07:54:43;93336.09;;;1.42;100.00
11011;BME280;5558;42.702;23.178;2023-01-28T07:57:10;93329.59;;;1.51;100.00
11011;BME280;5558;42.702;23.178;2023-01-28T07:59:37;93334.59;;;1.35;100.00
11011;BME280;5558;42.702;23.178;2023-01-28T08:02:03;93336.53;;;1.39;100.00
11011;BME280;5558;42.702;23.178;2023-01-28T08:04:32;93334.22;;;1.13;100.00
11011;BME280;5558;42.702;23.178;2023-01-28T08:06:59;93342.09;;;1.06;100.00
11011;BME280;5558;42.702;23.178;2023-01-28T08:09:25;93342.25;;;1.11;100.00
11011;BME280;5558;42.702;23.178;2023-01-28T08:11:53;93342.44;;;1.10;100.00
11011;BME280;5558;42.702;23.178;2023-01-28T08:14:20;93344.25;;;1.09;100.00
11011;BME280;5558;42.702;23.178;2023-01-28T08:16:46;93357.91;;;1.30;100.00
11011;BME280;5558;42.702;23.178;2023-01-28T08:19:13;93367.25;;;1.55;100.00
11011;BME280;5558;42.702;23.178;2023-01-28T08:21:41;93359.38;;;1.62;100.00
11011;BME280;5558;42.702;23.178;2023-01-28T08:24:08;93366.81;;;1.94;100.00
11011;BME280;5558;42.702;23.178;2023-01-28T08:26:35;93367.59;;;2.13;100.00
11011;BME280;5558;42.702;23.178;2023-01-28T08:29:01;93365.66;;;2.20;100.00
11011;BME280;5558;42.702;23.178;2023-01-28T08:31:28;93365.66;;;1.90;100.00
11011;BME280;5558;42.702;23.178;2023-01-28T08:33:55;93367.50;;;1.29;100.00
11011;BME280;5558;42.702;23.178;2023-01-28T08:36:21;93363.38;;;1.21;100.00
11011;BME280;5558;42.702;23.178;2023-01-28T08:38:52;93360.94;;;1.63;100.00
11011;BME280;5558;42.702;23.178;2023-01-28T08:41:19;93372.69;;;1.90;100.00
11011;BME280;5558;42.702;23.178;2023-01-28T08:43:46;93365.16;;;1.64;100.00
11011;BME280;5558;42.702;23.178;2023-01-28T08:46:13;93370.13;;;1.29;100.00
11011;BME280;5558;42.702;23.178;2023-01-28T08:48:40;93360.22;;;1.38;100.00
11011;BME280;5558;42.702;23.178;2023-01-28T08:51:07;93337.63;;;1.50;100.00
11011;BME280;5558;42.702;23.178;2023-01-28T08:53:34;93376.81;;;1.61;100.00
11011;BME280;5558;42.702;23.178;2023-01-28T08:56:02;93367.72;;;1.09;100.00
11011;BME280;5558;42.702;23.178;2023-01-28T08:58:29;93373.59;;;0.98;100.00
11011;BME280;5558;42.702;23.178;2023-01-28T09:00:56;93375.59;;;1.03;100.00
11011;BME280;5558;42.702;23.178;2023-01-28T09:03:23;93379.50;;;0.87;100.00
11011;BME280;5558;42.702;23.178;2023-01-28T09:05:50;93378.59;;;0.75;100.00
11011;BME280;5558;42.702;23.178;2023-01-28T09:08:16;93369.41;;;0.97;100.00
11011;BME280;5558;42.702;23.178;2023-01-28T09:10:44;93368.66;;;0.90;100.00
11011;BME280;5558;42.702;23.178;2023-01-28T09:13:14;93374.91;;;0.89;100.00
11011;BME280;5558;42.702;23.178;2023-01-28T09:15:41;93365.47;;;0.88;100.00
11011;BME280;5558;42.702;23.178;2023-01-28T09:18:08;93374.19;;;1.00;100.00
11011;BME280;5558;42.702;23.178;2023-01-28T09:20:35;93373.97;;;1.27;100.00
11011;BME280;5558;42.702;23.178;2023-01-28T09:23:02;93380.09;;;1.32;100.00
11011;BME280;5558;42.702;23.178;2023-01-28T09:25:29;93382.63;;;1.20;100.00
11011;BME280;5558;42.702;23.178;2023-01-28T09:27:56;93379.69;;;1.35;100.00
11011;BME280;5558;42.702;23.178;2023-01-28T09:30:24;93381.25;;;1.18;100.00
11011;BME280;5558;42.702;23.178;2023-01-28T09:32:51;93370.25;;;1.16;100.00
11011;BME280;5558;42.702;23.178;2023-01-28T09:35:18;93370.69;;;1.13;100.00
11011;BME280;5558;42.702;23.178;2023-01-28T09:37:45;93358.34;;;1.02;100.00
11011;BME280;5558;42.702;23.178;2023-01-28T09:40:15;93364.63;;;0.94;100.00
11011;BME280;5558;42.702;23.178;2023-01-28T09:42:53;93367.94;;;1.26;100.00
11011;BME280;5558;42.702;23.178;2023-01-28T09:45:30;93371.59;;;1.61;100.00
11011;BME280;5558;42.702;23.178;2023-01-28T09:48:02;93369.34;;;1.65;100.00
11011;BME280;5558;42.702;23.178;2023-01-28T09:50:32;93378.25;;;1.93;100.00
11011;BME280;5558;42.702;23.178;2023-01-28T09:53:03;93371.34;;;2.17;100.00
11011;BME280;5558;42.702;23.178;2023-01-28T09:55:34;93365.88;;;1.89;100.00
11011;BME280;5558;42.702;23.178;2023-01-28T09:58:05;93374.34;;;1.66;100.00
11011;BME280;5558;42.702;23.178;2023-01-28T10:00:37;93348.34;;;1.60;100.00
11011;BME280;5558;42.702;23.178;2023-01-28T10:03:27;93371.63;;;1.79;100.00
11011;BME280;5558;42.702;23.178;2023-01-28T10:06:05;93372.25;;;1.93;100.00
11011;BME280;5558;42.702;23.178;2023-01-28T10:08:57;93373.03;;;1.93;100.00
11011;BME280;5558;42.702;23.178;2023-01-28T10:11:39;93373.41;;;1.97;100.00
11011;BME280;5558;42.702;23.178;2023-01-28T10:14:16;93366.31;;;1.68;100.00
11011;BME280;5558;42.702;23.178;2023-01-28T10:16:51;93360.50;;;1.48;100.00
11011;BME280;5558;42.702;23.178;2023-01-28T10:19:24;93368.44;;;1.77;100.00
11011;BME280;5558;42.702;23.178;2023-01-28T10:21:56;93361.91;;;1.50;100.00
11011;BME280;5558;42.702;23.178;2023-01-28T10:24:28;93366.09;;;1.69;100.00
11011;BME280;5558;42.702;23.178;2023-01-28T10:26:57;93372.69;;;1.54;100.00
11011;BME280;5558;42.702;23.178;2023-01-28T10:29:26;93368.78;;;1.45;100.00
11011;BME280;5558;42.702;23.178;2023-01-28T10:31:59;93358.88;;;1.10;100.00
11011;BME280;5558;42.702;23.178;2023-01-28T10:34:29;93361.34;;;1.23;100.00
11011;BME280;5558;42.702;23.178;2023-01-28T10:36:56;93368.09;;;1.31;100.00
11011;BME280;5558;42.702;23.178;2023-01-28T10:39:24;93367.19;;;1.44;100.00
11011;BME280;5558;42.702;23.178;2023-01-28T10:41:52;93370.81;;;1.61;100.00
11011;BME280;5558;42.702;23.178;2023-01-28T10:44:26;93365.16;;;1.82;100.00
11011;BME280;5558;42.702;23.178;2023-01-28T10:46:58;93372.38;;;2.16;100.00
11011;BME280;5558;42.702;23.178;2023-01-28T10:49:28;93366.38;;;1.61;100.00
11011;BME280;5558;42.702;23.178;2023-01-28T10:51:56;93366.59;;;1.60;100.00
11011;BME280;5558;42.702;23.178;2023-01-28T10:54:25;93357.38;;;1.39;100.00
11011;BME280;5558;42.702;23.178;2023-01-28T10:56:54;93367.25;;;1.73;100.00
11011;BME280;5558;42.702;23.178;2023-01-28T10:59:25;93361.97;;;1.62;100.00
11011;BME280;5558;42.702;23.178;2023-01-28T11:01:54;93364.94;;;1.65;100.00
11011;BME280;5558;42.702;23.178;2023-01-28T11:04:25;93368.22;;;1.61;100.00
11011;BME280;5558;42.702;23.178;2023-01-28T11:06:58;93372.41;;;1.44;100.00
11011;BME280;5558;42.702;23.178;2023-01-28T11:09:27;93365.94;;;1.46;100.00
11011;BME280;5558;42.702;23.178;2023-01-28T11:11:55;93371.38;;;1.63;100.00
11011;BME280;5558;42.702;23.178;2023-01-28T11:14:23;93367.59;;;1.95;100.00
11011;BME280;5558;42.702;23.178;2023-01-28T11:16:52;93343.56;;;1.93;100.00
11011;BME280;5558;42.702;23.178;2023-01-28T11:19:24;93363.69;;;2.04;100.00
11011;BME280;5558;42.702;23.178;2023-01-28T11:21:54;93368.53;;;2.00;100.00
11011;BME280;5558;42.702;23.178;2023-01-28T11:24:25;93365.47;;;2.21;100.00
11011;BME280;5558;42.702;23.178;2023-01-28T11:26:56;93365.56;;;1.97;100.00
11011;BME280;5558;42.702;23.178;2023-01-28T11:29:26;93369.28;;;1.71;100.00
11011;BME280;5558;42.702;23.178;2023-01-28T11:31:54;93361.75;;;1.99;100.00
11011;BME280;5558;42.702;23.178;2023-01-28T11:34:26;93358.38;;;2.10;100.00
11011;BME280;5558;42.702;23.178;2023-01-28T11:36:59;93348.59;;;1.88;100.00
11011;BME280;5558;42.702;23.178;2023-01-28T11:39:27;93364.81;;;2.26;100.00
11011;BME280;5558;42.702;23.178;2023-01-28T11:42:02;93364.00;;;1.96;100.00
11011;BME280;5558;42.702;23.178;2023-01-28T11:44:35;93361.91;;;1.68;100.00
11011;BME280;5558;42.702;23.178;2023-01-28T11:47:17;93357.09;;;1.83;100.00
11011;BME280;5558;42.702;23.178;2023-01-28T11:50:04;93354.81;;;2.05;100.00
11011;BME280;5558;42.702;23.178;2023-01-28T11:52:47;93354.50;;;1.83;100.00
11011;BME280;5558;42.702;23.178;2023-01-28T11:55:24;93355.59;;;1.58;100.00
11011;BME280;5558;42.702;23.178;2023-01-28T11:58:02;93354.63;;;1.34;100.00
11011;BME280;5558;42.702;23.178;2023-01-28T12:00:39;93352.16;;;1.21;100.00
11011;BME280;5558;42.702;23.178;2023-01-28T12:03:25;93351.25;;;1.34;100.00
11011;BME280;5558;42.702;23.178;2023-01-28T12:06:11;93351.69;;;1.49;100.00
11011;BME280;5558;42.702;23.178;2023-01-28T12:08:47;93355.38;;;1.77;100.00
11011;BME280;5558;42.702;23.178;2023-01-28T12:11:29;93352.72;;;1.66;100.00
11011;BME280;5558;42.702;23.178;2023-01-28T12:14:23;93354.06;;;1.86;100.00
11011;BME280;5558;42.702;23.178;2023-01-28T12:17:02;93358.00;;;1.77;100.00
11011;BME280;5558;42.702;23.178;2023-01-28T12:19:45;93353.69;;;2.01;100.00
11011;BME280;5558;42.702;23.178;2023-01-28T12:22:32;93350.16;;;1.77;100.00
11011;BME280;5558;42.702;23.178;2023-01-28T12:25:27;93351.47;;;1.50;100.00
11011;BME280;5558;42.702;23.178;2023-01-28T12:28:04;93342.69;;;1.45;100.00
11011;BME280;5558;42.702;23.178;2023-01-28T12:30:43;93357.06;;;1.54;100.00
11011;BME280;5558;42.702;23.178;2023-01-28T12:33:35;93352.25;;;1.33;100.00
11011;BME280;5558;42.702;23.178;2023-01-28T12:36:18;93354.19;;;1.37;100.00
11011;BME280;5558;42.702;23.178;2023-01-28T12:38:58;93359.28;;;1.68;100.00
11011;BME280;5558;42.702;23.178;2023-01-28T12:41:32;93361.97;;;1.62;100.00
11011;BME280;5558;42.702;23.178;2023-01-28T12:44:03;93368.03;;;1.38;100.00
11011;BME280;5558;42.702;23.178;2023-01-28T12:46:41;93355.38;;;1.41;100.00
11011;BME280;5558;42.702;23.178;2023-01-28T12:49:15;93377.41;;;1.63;100.00
11011;BME280;5558;42.702;23.178;2023-01-28T12:51:50;93362.63;;;1.57;100.00
11011;BME280;5558;42.702;23.178;2023-01-28T12:54:24;93376.06;;;1.36;100.00
11011;BME280;5558;42.702;23.178;2023-01-28T12:56:54;93371.81;;;1.78;100.00
11011;BME280;5558;42.702;23.178;2023-01-28T12:59:26;93366.66;;;1.71;100.00
11011;BME280;5558;42.702;23.178;2023-01-28T13:02:01;93373.91;;;1.69;100.00
11011;BME280;5558;42.702;23.178;2023-01-28T13:04:36;93371.19;;;1.82;100.00
11011;BME280;5558;42.702;23.178;2023-01-28T13:07:05;93381.25;;;1.79;100.00
11011;BME280;5558;42.702;23.178;2023-01-28T13:09:37;93377.81;;;1.96;100.00
11011;BME280;5558;42.702;23.178;2023-01-28T13:12:09;93392.41;;;1.86;100.00
11011;BME280;5558;42.702;23.178;2023-01-28T13:14:37;93384.06;;;1.77;100.00
11011;BME280;5558;42.702;23.178;2023-01-28T13:17:08;93384.88;;;1.96;100.00